Time;durP1;ratioP1;P1;durP2;ratioP2;P2;SDS_P1;SDS_P2;PMS_P1;PMS_P2;Temp;Humidity;BMP_temperature;BMP_pressure;BME280_temperature;BME280_humidity;BME280_pressure;Samples;Min_cycle;Max_cycle;Signal;HPM_P1;HPM_P2
2023/05/09 00:01:30;;;;;;;2.80;0.60;;;16.30;99.90;;;;;;5087235;28;20195;-76
2023/05/09 00:04:01;;;;;;;1.20;0.60;;;16.40;99.90;;;;;;5085229;28;20192;-77
2023/05/09 00:06:32;;;;;;;2.28;0.70;;;16.50;99.90;;;;;;5081239;28;20203;-77
2023/05/09 00:09:03;;;;;;;1.40;0.45;;;16.70;99.90;;;;;;5085287;28;20199;-77
2023/05/09 00:11:35;;;;;;;1.02;0.55;;;16.80;99.90;;;;;;5082461;28;20698;-75
2023/05/09 00:14:08;;;;;;;0.52;0.40;;;16.90;99.90;;;;;;5083716;28;20206;-77
2023/05/09 00:16:39;;;;;;;2.65;0.60;;;17.00;99.90;;;;;;5082238;28;20227;-77
2023/05/09 00:19:11;;;;;;;0.98;0.50;;;17.00;99.90;;;;;;5079965;28;20191;-76
2023/05/09 00:21:43;;;;;;;0.38;0.30;;;17.00;99.90;;;;;;5086273;28;20229;-77
2023/05/09 00:24:14;;;;;;;2.05;0.47;;;17.00;99.90;;;;;;5087014;28;20226;-77
2023/05/09 00:26:45;;;;;;;0.40;0.40;;;17.10;99.90;;;;;;5087402;28;20555;-76
2023/05/09 00:29:18;;;;;;;0.30;0.30;;;17.20;99.90;;;;;;5087801;28;20577;-77
2023/05/09 00:31:49;;;;;;;0.50;0.40;;;17.30;99.90;;;;;;5089415;28;20697;-77
2023/05/09 00:34:20;;;;;;;0.70;0.47;;;17.40;99.90;;;;;;5086361;28;20222;-77
2023/05/09 00:36:51;;;;;;;0.75;0.60;;;17.40;99.90;;;;;;5091564;28;20720;-76
2023/05/09 00:39:24;;;;;;;1.00;0.40;;;17.60;99.90;;;;;;5081672;28;20256;-78
2023/05/09 00:41:57;;;;;;;1.98;0.45;;;17.70;99.90;;;;;;5086700;28;20195;-77
2023/05/09 00:44:30;;;;;;;0.57;0.40;;;17.70;99.90;;;;;;5081892;28;20235;-76
2023/05/09 00:47:01;;;;;;;5.13;0.60;;;17.80;99.90;;;;;;5085238;28;20195;-76
2023/05/09 00:49:32;;;;;;;0.65;0.40;;;17.90;99.90;;;;;;5081736;28;20196;-77
2023/05/09 00:52:04;;;;;;;0.30;0.30;;;17.80;99.90;;;;;;5085275;28;20191;-77
2023/05/09 00:54:36;;;;;;;2.40;0.52;;;17.90;99.90;;;;;;5079885;28;20272;-76
2023/05/09 00:57:07;;;;;;;2.28;0.63;;;17.90;99.90;;;;;;5089115;28;20227;-76
2023/05/09 00:59:40;;;;;;;3.85;0.85;;;17.90;99.90;;;;;;5086058;28;20199;-77
2023/05/09 01:02:12;;;;;;;1.60;0.93;;;18.10;99.90;;;;;;5088093;28;20200;-76
2023/05/09 01:04:44;;;;;;;2.40;0.68;;;18.20;99.90;;;;;;5085189;28;20195;-75
2023/05/09 01:07:26;;;;;;;2.63;0.70;;;18.30;99.90;;;;;;5079464;28;20682;-77
2023/05/09 01:10:03;;;;;;;2.33;0.70;;;18.40;99.90;;;;;;5072920;28;20225;-76
2023/05/09 01:12:43;;;;;;;2.25;0.80;;;18.40;99.90;;;;;;5087345;28;20197;-76
2023/05/09 01:15:25;;;;;;;1.05;0.60;;;18.50;99.90;;;;;;5085842;28;20195;-76
2023/05/09 01:18:01;;;;;;;3.83;0.63;;;18.40;99.90;;;;;;5083292;28;20256;-76
2023/05/09 01:20:38;;;;;;;1.60;0.60;;;18.50;99.90;;;;;;5087682;28;20201;-76
2023/05/09 01:23:29;;;;;;;2.30;0.75;;;18.60;99.90;;;;;;5086850;28;20700;-76
2023/05/09 01:26:05;;;;;;;2.70;0.60;;;18.50;99.90;;;;;;5080837;28;20196;-77
2023/05/09 01:28:58;;;;;;;2.95;0.45;;;18.70;99.90;;;;;;5087712;28;20701;-76
2023/05/09 01:31:32;;;;;;;1.42;0.63;;;18.70;99.90;;;;;;5085184;28;20533;-76
2023/05/09 01:34:06;;;;;;;1.55;0.80;;;18.80;99.90;;;;;;5084039;28;20601;-76
2023/05/09 01:36:41;;;;;;;2.60;0.82;;;18.80;99.90;;;;;;5084587;28;20199;-77
2023/05/09 01:39:15;;;;;;;3.85;0.80;;;18.80;99.90;;;;;;5089045;28;20195;-74
2023/05/09 01:41:48;;;;;;;1.85;0.70;;;18.80;99.90;;;;;;5085150;28;20205;-75
2023/05/09 01:44:20;;;;;;;2.83;0.70;;;18.90;99.90;;;;;;5087481;28;20195;-76
2023/05/09 01:46:54;;;;;;;3.60;0.98;;;19.00;99.90;;;;;;5081730;28;20289;-76
2023/05/09 01:49:26;;;;;;;3.42;0.70;;;18.90;99.80;;;;;;5071008;28;20202;-76
2023/05/09 01:51:59;;;;;;;7.38;1.10;;;18.90;99.90;;;;;;5086765;28;20198;-77
2023/05/09 01:54:31;;;;;;;4.85;1.17;;;18.90;99.90;;;;;;5086541;28;20219;-77
2023/05/09 01:57:02;;;;;;;2.15;0.80;;;19.00;99.90;;;;;;5090628;28;20593;-77
2023/05/09 01:59:35;;;;;;;3.95;1.83;;;19.00;99.60;;;;;;5086303;28;20195;-76
2023/05/09 02:02:10;;;;;;;3.55;1.00;;;19.00;99.70;;;;;;5082123;28;20658;-77
2023/05/09 02:04:43;;;;;;;3.90;1.10;;;19.10;99.40;;;;;;5084049;28;20206;-77
2023/05/09 02:07:15;;;;;;;3.53;1.00;;;19.20;99.40;;;;;;5087268;28;20200;-76
2023/05/09 02:09:47;;;;;;;2.10;0.85;;;19.30;99.00;;;;;;5086532;28;20282;-76
2023/05/09 02:12:20;;;;;;;2.78;0.90;;;19.40;98.30;;;;;;5088734;28;20222;-77
2023/05/09 02:14:51;;;;;;;6.95;1.02;;;19.50;98.20;;;;;;5084799;28;20207;-76
2023/05/09 02:17:24;;;;;;;4.72;1.42;;;19.60;97.30;;;;;;5087115;28;20215;-77
2023/05/09 02:19:55;;;;;;;2.35;0.80;;;19.60;96.20;;;;;;5094263;28;20218;-76
2023/05/09 02:22:26;;;;;;;4.47;1.50;;;19.50;96.20;;;;;;5081655;28;20208;-77
2023/05/09 02:24:57;;;;;;;4.05;1.25;;;19.50;96.90;;;;;;5084045;28;20226;-77
2023/05/09 02:27:29;;;;;;;5.88;1.00;;;19.50;97.30;;;;;;5086431;28;20214;-77
2023/05/09 02:30:02;;;;;;;2.15;0.90;;;19.60;97.20;;;;;;5087852;28;20587;-76
2023/05/09 02:32:38;;;;;;;6.95;1.23;;;19.70;96.50;;;;;;5073543;28;20215;-77
2023/05/09 02:35:11;;;;;;;4.43;1.10;;;19.70;96.30;;;;;;5075391;28;20225;-76
2023/05/09 02:37:43;;;;;;;4.50;1.33;;;19.80;96.90;;;;;;5090142;28;20214;-76
2023/05/09 02:40:15;;;;;;;7.18;1.38;;;19.80;96.60;;;;;;5089859;28;20705;-77
2023/05/09 02:42:47;;;;;;;3.38;1.27;;;19.80;96.10;;;;;;5090257;28;20570;-77
2023/05/09 02:45:18;;;;;;;3.30;1.35;;;20.00;96.90;;;;;;5088435;28;20206;-77
2023/05/09 02:47:51;;;;;;;4.90;1.38;;;20.00;96.90;;;;;;5103401;28;20202;-77
2023/05/09 02:50:22;;;;;;;3.58;1.17;;;20.00;96.80;;;;;;5104653;28;20196;-77
2023/05/09 02:52:53;;;;;;;5.47;1.00;;;19.90;97.10;;;;;;5089867;28;20214;-76
2023/05/09 02:55:24;;;;;;;2.95;1.20;;;19.80;97.70;;;;;;5090386;28;20203;-77
2023/05/09 02:57:55;;;;;;;3.85;1.50;;;19.60;97.90;;;;;;5089541;28;20215;-77
2023/05/09 03:00:26;;;;;;;7.13;2.40;;;19.40;98.00;;;;;;5084237;28;20195;-77
2023/05/09 03:02:59;;;;;;;5.45;1.48;;;19.30;98.20;;;;;;5088950;28;20195;-76
2023/05/09 03:05:30;;;;;;;2.75;1.00;;;19.20;99.40;;;;;;5100641;28;20198;-77
2023/05/09 03:08:02;;;;;;;4.30;1.27;;;19.20;99.60;;;;;;5090076;28;20200;-77
2023/05/09 03:10:33;;;;;;;6.60;1.48;;;19.30;99.90;;;;;;5087840;28;20192;-77
2023/05/09 03:13:05;;;;;;;4.63;1.17;;;19.30;99.40;;;;;;5089531;28;20202;-77
2023/05/09 03:15:36;;;;;;;6.97;1.25;;;19.40;99.80;;;;;;5087755;28;20199;-77
2023/05/09 03:18:10;;;;;;;6.47;1.42;;;19.30;99.50;;;;;;5093322;28;20216;-77
2023/05/09 03:20:41;;;;;;;6.05;1.40;;;19.30;99.90;;;;;;5091838;28;20676;-76
2023/05/09 03:23:12;;;;;;;5.03;1.55;;;19.30;99.90;;;;;;5093283;28;20234;-76
2023/05/09 03:25:43;;;;;;;6.20;1.60;;;19.30;99.90;;;;;;5093557;28;20194;-77
2023/05/09 03:28:14;;;;;;;5.00;1.23;;;19.30;99.90;;;;;;5089066;28;20227;-77
2023/05/09 03:30:45;;;;;;;4.78;1.08;;;19.30;99.90;;;;;;5086875;28;20195;-77
2023/05/09 03:33:18;;;;;;;6.93;1.20;;;19.30;99.90;;;;;;5078489;28;20227;-76
2023/05/09 03:35:49;;;;;;;3.60;1.30;;;19.30;99.90;;;;;;5079432;28;20207;-76
2023/05/09 03:38:23;;;;;;;7.45;1.55;;;19.20;99.90;;;;;;5088117;28;20223;-76
2023/05/09 03:40:55;;;;;;;4.10;1.17;;;19.20;99.90;;;;;;5090686;28;20219;-77
2023/05/09 03:43:26;;;;;;;4.88;0.90;;;19.20;99.90;;;;;;5096299;28;20198;-76
2023/05/09 03:45:57;;;;;;;2.92;0.80;;;19.10;99.90;;;;;;5092162;28;20199;-76
2023/05/09 03:48:30;;;;;;;3.88;1.27;;;19.00;99.90;;;;;;5093051;28;20195;-76
2023/05/09 03:51:05;;;;;;;6.22;1.10;;;19.00;99.90;;;;;;5084213;28;20669;-77
2023/05/09 03:53:36;;;;;;;4.47;1.30;;;19.00;99.90;;;;;;5083355;28;20666;-77
2023/05/09 03:56:07;;;;;;;5.05;1.30;;;18.80;99.90;;;;;;5086797;28;20278;-76
2023/05/09 03:58:38;;;;;;;5.47;1.25;;;18.90;99.90;;;;;;5086875;28;20246;-76
2023/05/09 04:01:09;;;;;;;5.07;1.02;;;18.80;99.90;;;;;;5089622;28;20198;-76
2023/05/09 04:03:43;;;;;;;4.13;1.00;;;18.90;99.90;;;;;;5087876;28;20201;-77
2023/05/09 04:06:14;;;;;;;2.78;1.15;;;18.80;99.90;;;;;;5090189;28;20344;-77
2023/05/09 04:08:45;;;;;;;3.92;1.30;;;18.80;99.90;;;;;;5089680;28;20238;-76
2023/05/09 04:11:16;;;;;;;3.55;1.10;;;18.70;99.90;;;;;;5090335;28;20196;-76
2023/05/09 04:13:47;;;;;;;6.28;1.20;;;18.70;99.90;;;;;;5100600;28;20211;-77
2023/05/09 04:16:19;;;;;;;5.07;1.48;;;18.70;99.90;;;;;;5082828;28;20219;-76
2023/05/09 04:18:52;;;;;;;6.22;1.50;;;18.70;99.90;;;;;;5089347;28;20764;-75
2023/05/09 04:21:23;;;;;;;4.32;1.27;;;18.70;99.90;;;;;;5090117;28;20207;-76
2023/05/09 04:23:54;;;;;;;3.60;1.30;;;18.70;99.90;;;;;;5091967;28;20233;-76
2023/05/09 04:26:25;;;;;;;4.65;1.35;;;18.70;99.90;;;;;;5086075;28;20199;-76
2023/05/09 04:28:56;;;;;;;3.97;1.45;;;18.60;99.90;;;;;;5087558;28;20198;-76
2023/05/09 04:31:27;;;;;;;4.47;1.08;;;18.70;99.90;;;;;;5088541;28;20194;-76
2023/05/09 04:34:01;;;;;;;5.07;1.35;;;18.70;99.90;;;;;;5092186;28;20274;-75
2023/05/09 04:36:32;;;;;;;5.82;1.30;;;18.70;99.90;;;;;;5093271;28;20183;-76
2023/05/09 04:39:04;;;;;;;5.13;1.33;;;18.60;99.90;;;;;;5091599;28;20234;-77
2023/05/09 04:41:35;;;;;;;6.68;1.30;;;18.70;99.90;;;;;;5090656;28;20227;-78
2023/05/09 04:44:06;;;;;;;6.50;1.52;;;18.60;99.90;;;;;;5094451;28;20196;-77
2023/05/09 04:46:39;;;;;;;3.25;1.13;;;18.60;99.90;;;;;;5092808;28;20191;-77
2023/05/09 04:49:13;;;;;;;4.80;1.35;;;18.70;99.90;;;;;;5096254;28;20196;-76
2023/05/09 04:51:44;;;;;;;4.70;1.50;;;18.70;99.90;;;;;;5088795;28;20219;-75
2023/05/09 04:54:15;;;;;;;5.75;1.10;;;18.70;99.90;;;;;;5087461;28;20202;-75
2023/05/09 04:56:46;;;;;;;5.63;1.30;;;18.70;99.90;;;;;;5089228;28;20570;-76
2023/05/09 04:59:17;;;;;;;5.47;1.70;;;18.70;99.90;;;;;;5082339;28;20214;-76
2023/05/09 05:01:48;;;;;;;5.53;1.30;;;18.70;99.90;;;;;;5079328;28;20676;-76
2023/05/09 05:04:23;;;;;;;6.88;1.25;;;18.60;99.90;;;;;;5090127;28;20199;-76
2023/05/09 05:06:54;;;;;;;9.20;1.40;;;18.60;99.90;;;;;;5092750;28;20276;-76
2023/05/09 05:09:25;;;;;;;7.32;1.25;;;18.60;99.90;;;;;;5081886;28;20214;-75
2023/05/09 05:11:56;;;;;;;5.85;1.25;;;18.60;99.90;;;;;;5085854;28;20195;-76
2023/05/09 05:14:27;;;;;;;9.82;1.95;;;18.60;99.90;;;;;;5088984;28;20565;-76
2023/05/09 05:16:58;;;;;;;9.23;1.63;;;18.60;99.90;;;;;;5090473;28;20196;-76
2023/05/09 05:19:31;;;;;;;3.67;0.85;;;18.70;99.90;;;;;;5092277;28;20233;-75
2023/05/09 05:22:02;;;;;;;5.22;1.35;;;18.70;99.90;;;;;;5083838;28;20705;-75
2023/05/09 05:24:33;;;;;;;8.18;1.83;;;18.70;99.90;;;;;;5044782;28;20615;-76
2023/05/09 05:27:08;;;;;;;8.57;1.83;;;18.70;99.90;;;;;;5050455;28;20196;-75
2023/05/09 05:29:40;;;;;;;6.70;1.40;;;18.70;99.90;;;;;;5049301;28;20249;-76
2023/05/09 05:32:11;;;;;;;6.55;1.58;;;18.60;99.90;;;;;;5044894;28;20201;-75
2023/05/09 05:34:44;;;;;;;5.18;1.33;;;18.70;99.90;;;;;;5049785;28;20249;-76
2023/05/09 05:37:18;;;;;;;7.18;1.55;;;18.70;99.90;;;;;;5053484;28;20565;-75
2023/05/09 05:39:50;;;;;;;7.22;1.58;;;18.70;99.90;;;;;;5048676;28;20231;-75
2023/05/09 05:42:21;;;;;;;8.60;1.80;;;18.80;99.90;;;;;;5047151;28;20217;-75
2023/05/09 05:44:52;;;;;;;9.32;1.55;;;18.70;99.90;;;;;;5053051;28;20212;-75
2023/05/09 05:47:23;;;;;;;6.60;1.35;;;18.70;99.90;;;;;;5045852;28;20211;-76
2023/05/09 05:49:56;;;;;;;6.20;1.73;;;18.60;99.90;;;;;;5046463;28;20235;-76
2023/05/09 05:52:28;;;;;;;9.50;1.63;;;18.60;99.90;;;;;;5050675;28;20221;-76
2023/05/09 05:54:59;;;;;;;8.55;1.58;;;18.50;99.90;;;;;;5045769;28;20205;-76
2023/05/09 05:57:30;;;;;;;5.93;1.40;;;18.60;99.90;;;;;;5039040;28;20247;-75
2023/05/09 06:00:04;;;;;;;10.27;1.60;;;18.50;99.90;;;;;;5047280;28;20711;-75
2023/05/09 06:02:36;;;;;;;7.82;1.58;;;18.50;99.90;;;;;;5051802;28;20184;-76
2023/05/09 06:05:09;;;;;;;8.13;1.40;;;18.50;99.90;;;;;;5050483;28;20204;-76
2023/05/09 06:07:42;;;;;;;6.47;1.48;;;18.60;99.90;;;;;;5046642;28;20258;-77
2023/05/09 06:10:14;;;;;;;9.10;1.90;;;18.60;99.90;;;;;;5045746;28;20208;-77
2023/05/09 06:12:45;;;;;;;6.45;1.50;;;18.60;99.90;;;;;;5037717;28;20193;-76
2023/05/09 06:15:16;;;;;;;7.45;1.67;;;18.60;99.90;;;;;;5053424;28;20214;-76
2023/05/09 06:17:48;;;;;;;6.07;1.40;;;18.60;99.90;;;;;;5041963;28;20193;-76
2023/05/09 06:20:21;;;;;;;5.75;1.58;;;18.70;99.90;;;;;;5046059;28;20563;-76
2023/05/09 06:22:52;;;;;;;5.60;1.73;;;18.90;99.90;;;;;;5056031;28;20228;-76
2023/05/09 06:25:23;;;;;;;5.97;1.23;;;19.10;99.90;;;;;;5081716;28;20569;-75
2023/05/09 06:27:55;;;;;;;8.10;1.67;;;19.20;99.90;;;;;;5096196;28;20633;-76
2023/05/09 06:30:26;;;;;;;7.85;1.50;;;19.20;99.90;;;;;;5089515;28;20199;-76
2023/05/09 06:32:58;;;;;;;4.30;1.40;;;19.10;99.90;;;;;;5090704;28;20198;-76
2023/05/09 06:35:32;;;;;;;7.40;1.50;;;19.10;99.90;;;;;;5089596;28;20195;-77
2023/05/09 06:38:03;;;;;;;6.65;1.40;;;19.00;99.90;;;;;;5090103;28;20561;-77
2023/05/09 06:40:34;;;;;;;6.72;1.27;;;18.80;99.90;;;;;;5081604;28;20195;-77
2023/05/09 06:43:05;;;;;;;5.63;1.58;;;18.70;99.90;;;;;;5086534;28;20666;-76
2023/05/09 06:45:37;;;;;;;5.68;1.75;;;18.70;99.90;;;;;;5090094;28;20222;-76
2023/05/09 06:48:08;;;;;;;6.45;1.92;;;18.60;99.90;;;;;;5082114;28;20273;-76
2023/05/09 06:50:43;;;;;;;8.18;1.60;;;18.50;99.90;;;;;;5080244;28;20605;-76
2023/05/09 06:53:14;;;;;;;7.32;1.60;;;18.50;99.90;;;;;;5081697;28;20218;-75
2023/05/09 06:55:45;;;;;;;6.78;1.45;;;18.40;99.90;;;;;;5084943;28;20223;-76
2023/05/09 06:58:17;;;;;;;7.55;1.75;;;18.30;99.90;;;;;;5089205;28;20575;-74
2023/05/09 07:00:48;;;;;;;9.27;2.10;;;18.30;99.90;;;;;;5086547;28;20628;-75
2023/05/09 07:03:20;;;;;;;5.10;1.27;;;18.10;99.90;;;;;;5083055;28;20203;-75
2023/05/09 07:05:55;;;;;;;7.25;1.90;;;18.10;99.90;;;;;;5095291;28;20199;-75
2023/05/09 07:08:26;;;;;;;8.48;3.67;;;18.00;99.90;;;;;;5092644;28;20195;-75
2023/05/09 07:10:58;;;;;;;5.40;2.58;;;18.00;99.90;;;;;;5089973;28;20252;-75
2023/05/09 07:13:29;;;;;;;6.15;2.10;;;18.00;99.90;;;;;;5091924;28;20202;-74
2023/05/09 07:16:00;;;;;;;6.15;2.08;;;17.90;99.90;;;;;;5091467;28;20191;-75
2023/05/09 07:18:31;;;;;;;9.45;2.20;;;17.90;99.90;;;;;;5093825;28;20202;-75
2023/05/09 07:21:04;;;;;;;7.63;2.40;;;17.90;99.90;;;;;;5090923;28;20207;-75
2023/05/09 07:23:35;;;;;;;6.47;2.13;;;17.90;99.90;;;;;;5086246;28;20231;-76
2023/05/09 07:26:06;;;;;;;11.45;2.22;;;17.80;99.90;;;;;;5092026;28;20567;-76
2023/05/09 07:28:37;;;;;;;6.18;2.28;;;17.70;99.90;;;;;;5083251;28;20201;-76
2023/05/09 07:31:08;;;;;;;17.48;6.80;;;17.70;99.90;;;;;;5084545;28;20200;-77
2023/05/09 07:33:40;;;;;;;12.23;4.47;;;17.70;99.90;;;;;;5091767;28;20206;-76
2023/05/09 07:36:15;;;;;;;8.18;3.22;;;17.60;99.90;;;;;;5092804;28;20203;-76
2023/05/09 07:38:46;;;;;;;7.13;2.70;;;17.60;99.90;;;;;;5090550;28;20233;-76
2023/05/09 07:41:17;;;;;;;4.28;2.20;;;17.60;99.90;;;;;;5091708;28;20291;-76
2023/05/09 07:43:51;;;;;;;6.60;2.53;;;17.50;99.90;;;;;;5090791;28;20190;-75
2023/05/09 07:46:22;;;;;;;7.53;2.45;;;17.50;99.90;;;;;;5090391;28;20230;-76
2023/05/09 07:48:53;;;;;;;5.95;2.42;;;17.40;99.90;;;;;;5093114;28;20203;-76
2023/05/09 07:51:29;;;;;;;7.35;2.30;;;17.40;99.90;;;;;;5093121;28;20196;-77
2023/05/09 07:54:00;;;;;;;10.20;2.25;;;17.40;99.90;;;;;;5089554;28;20673;-75
2023/05/09 07:56:31;;;;;;;7.40;2.92;;;17.30;99.90;;;;;;5092077;28;20207;-75
2023/05/09 07:59:02;;;;;;;6.22;2.33;;;17.30;99.90;;;;;;5083021;28;20226;-76
2023/05/09 08:01:34;;;;;;;5.97;2.13;;;17.20;99.90;;;;;;5112183;28;20199;-76
2023/05/09 08:04:05;;;;;;;6.30;2.50;;;17.30;99.90;;;;;;5109835;28;20259;-75
2023/05/09 08:06:38;;;;;;;7.47;2.88;;;17.20;99.90;;;;;;5101214;28;20257;-75
2023/05/09 08:09:09;;;;;;;4.40;2.55;;;17.20;99.90;;;;;;5099518;28;20212;-77
2023/05/09 08:11:40;;;;;;;4.13;2.50;;;17.20;99.90;;;;;;5084717;28;20681;-75
2023/05/09 08:14:11;;;;;;;6.88;3.08;;;17.20;99.90;;;;;;5086263;28;20196;-74
2023/05/09 08:16:43;;;;;;;7.22;2.90;;;17.10;99.90;;;;;;5093176;28;20195;-75
2023/05/09 08:19:15;;;;;;;10.82;3.80;;;17.10;99.90;;;;;;5087773;28;20269;-76
2023/05/09 08:21:48;;;;;;;8.35;3.60;;;17.10;99.90;;;;;;5089165;28;20225;-76
2023/05/09 08:24:19;;;;;;;6.63;3.33;;;17.10;99.90;;;;;;5088705;28;20241;-75
2023/05/09 08:26:51;;;;;;;10.60;4.43;;;17.10;99.90;;;;;;5095652;28;20253;-75
2023/05/09 08:29:23;;;;;;;11.85;4.60;;;17.10;99.90;;;;;;5107539;28;20203;-75
2023/05/09 08:31:54;;;;;;;17.27;9.23;;;17.10;99.90;;;;;;5091640;28;20199;-76
2023/05/09 08:34:25;;;;;;;13.80;4.85;;;17.10;99.90;;;;;;5093708;28;20245;-76
2023/05/09 08:37:00;;;;;;;8.43;3.38;;;17.10;99.90;;;;;;5093615;28;20227;-77
2023/05/09 08:39:33;;;;;;;9.70;3.00;;;17.00;99.90;;;;;;5093235;28;20693;-77
2023/05/09 08:42:06;;;;;;;7.05;3.22;;;17.00;99.90;;;;;;5093260;28;20226;-76
2023/05/09 08:44:37;;;;;;;7.28;2.67;;;17.00;99.90;;;;;;5091998;28;20270;-76
2023/05/09 08:47:08;;;;;;;6.97;2.97;;;17.00;99.90;;;;;;5091090;28;20202;-75
2023/05/09 08:49:39;;;;;;;9.60;3.85;;;17.00;99.90;;;;;;5093074;28;20582;-76
2023/05/09 08:52:13;;;;;;;10.32;3.83;;;16.90;99.90;;;;;;5092691;28;20199;-75
2023/05/09 08:54:44;;;;;;;9.07;4.10;;;17.00;99.90;;;;;;5086034;28;20547;-75
2023/05/09 08:57:16;;;;;;;8.88;3.20;;;16.90;99.90;;;;;;5090717;28;20200;-75
2023/05/09 08:59:48;;;;;;;10.45;4.38;;;16.90;99.90;;;;;;5090319;28;20219;-75
2023/05/09 09:02:19;;;;;;;14.95;5.10;;;16.90;99.90;;;;;;5092416;28;20205;-75
2023/05/09 09:04:50;;;;;;;8.65;3.50;;;17.00;99.90;;;;;;5105152;28;20268;-76
2023/05/09 09:07:24;;;;;;;7.60;3.13;;;16.90;99.90;;;;;;5098345;28;20673;-76
2023/05/09 09:09:56;;;;;;;7.93;3.17;;;17.00;99.90;;;;;;5095375;28;20672;-76
2023/05/09 09:12:28;;;;;;;7.30;2.65;;;16.90;99.90;;;;;;5092748;28;20206;-76
2023/05/09 09:15:02;;;;;;;8.73;3.00;;;16.90;99.90;;;;;;5082626;28;20203;-76
2023/05/09 09:17:34;;;;;;;9.50;2.83;;;16.80;99.90;;;;;;5095364;28;20232;-76
2023/05/09 09:20:08;;;;;;;6.70;3.22;;;16.80;99.90;;;;;;5092995;28;20366;-76
2023/05/09 09:22:48;;;;;;;7.97;3.45;;;16.80;99.90;;;;;;5091359;28;20227;-76
2023/05/09 09:25:19;;;;;;;5.80;2.67;;;16.70;99.90;;;;;;5089297;28;20222;-76
2023/05/09 09:27:50;;;;;;;10.80;4.22;;;16.80;99.90;;;;;;5091692;28;20691;-76
2023/05/09 09:30:25;;;;;;;6.32;3.63;;;16.70;99.90;;;;;;5082373;28;20196;-75
2023/05/09 09:32:56;;;;;;;10.15;5.57;;;16.70;99.90;;;;;;5090429;28;20194;-76
2023/05/09 09:35:27;;;;;;;12.80;6.38;;;16.60;99.90;;;;;;5095268;28;20205;-75
2023/05/09 09:38:02;;;;;;;9.23;4.28;;;16.60;99.90;;;;;;5088409;28;20191;-75
2023/05/09 09:40:33;;;;;;;11.52;4.40;;;16.60;99.90;;;;;;5088781;28;20222;-76
2023/05/09 09:43:08;;;;;;;11.82;4.55;;;16.50;99.90;;;;;;5088555;28;20196;-76
2023/05/09 09:45:43;;;;;;;17.45;7.63;;;16.50;99.90;;;;;;5090480;28;20199;-76
2023/05/09 09:48:14;;;;;;;8.40;4.32;;;16.50;99.90;;;;;;5091775;28;20209;-76
2023/05/09 09:50:45;;;;;;;6.57;3.30;;;16.50;99.90;;;;;;5084574;28;20559;-76
2023/05/09 09:53:22;;;;;;;7.40;4.05;;;16.40;99.90;;;;;;5098993;28;20285;-76
2023/05/09 09:55:54;;;;;;;15.57;9.70;;;16.40;99.90;;;;;;5075346;28;20192;-76
2023/05/09 09:58:25;;;;;;;8.20;4.32;;;16.30;99.90;;;;;;5090395;28;20196;-76
2023/05/09 10:01:12;;;;;;;12.73;6.15;;;16.40;99.90;;;;;;5088725;28;20705;-76
2023/05/09 10:03:45;;;;;;;8.95;3.90;;;16.30;99.90;;;;;;5076812;28;20270;-76
2023/05/09 10:06:17;;;;;;;9.07;3.72;;;16.30;99.90;;;;;;5086776;28;20199;-76
2023/05/09 10:08:50;;;;;;;6.25;4.00;;;16.30;99.90;;;;;;5094770;28;20191;-76
2023/05/09 10:11:21;;;;;;;8.68;3.80;;;16.30;99.90;;;;;;5089166;28;20210;-76
2023/05/09 10:13:52;;;;;;;7.78;3.47;;;16.30;99.90;;;;;;5105705;28;20550;-75
2023/05/09 10:16:23;;;;;;;8.35;4.00;;;16.30;99.90;;;;;;5089889;28;20206;-76
2023/05/09 10:18:55;;;;;;;6.65;3.40;;;16.20;99.90;;;;;;5090550;28;20194;-76
2023/05/09 10:21:26;;;;;;;8.82;3.58;;;16.10;99.90;;;;;;5090505;28;20234;-76
2023/05/09 10:24:01;;;;;;;12.70;4.40;;;16.10;99.90;;;;;;5092848;28;20229;-76
2023/05/09 10:26:37;;;;;;;10.20;4.20;;;16.10;99.90;;;;;;5107421;28;20229;-76
2023/05/09 10:29:12;;;;;;;6.20;3.10;;;16.20;99.90;;;;;;5106155;28;20195;-75
2023/05/09 10:31:44;;;;;;;6.35;3.42;;;16.10;99.90;;;;;;5096256;28;20266;-76
2023/05/09 10:34:17;;;;;;;10.85;3.28;;;16.00;99.90;;;;;;5097130;28;20195;-76
2023/05/09 10:36:49;;;;;;;10.45;4.35;;;16.10;99.90;;;;;;5092797;28;20591;-77
2023/05/09 10:39:24;;;;;;;8.32;3.03;;;16.10;99.90;;;;;;5095485;28;21124;-76
2023/05/09 10:41:55;;;;;;;5.88;2.53;;;16.10;99.90;;;;;;5098006;28;20244;-76
2023/05/09 10:44:28;;;;;;;5.70;2.80;;;16.00;99.90;;;;;;5096751;28;20684;-77
2023/05/09 10:47:06;;;;;;;5.38;2.45;;;16.00;99.90;;;;;;5097185;28;20674;-77
2023/05/09 10:49:40;;;;;;;6.63;2.85;;;16.00;99.90;;;;;;5102662;28;20199;-76
2023/05/09 10:52:11;;;;;;;7.85;2.83;;;16.10;99.90;;;;;;5093793;28;20203;-77
2023/05/09 10:54:45;;;;;;;5.25;2.40;;;16.10;99.90;;;;;;5095997;28;20203;-76
2023/05/09 10:57:21;;;;;;;7.15;2.95;;;16.20;99.90;;;;;;5098424;28;20577;-77
2023/05/09 10:59:54;;;;;;;5.28;2.58;;;16.20;99.90;;;;;;5097059;28;20268;-77
2023/05/09 11:02:29;;;;;;;5.45;2.75;;;16.20;99.90;;;;;;5089375;28;20568;-77
2023/05/09 11:05:20;;;;;;;7.15;2.72;;;16.10;99.90;;;;;;5081594;28;20216;-76
2023/05/09 11:08:11;;;;;;;8.70;3.10;;;16.10;99.90;;;;;;5093681;28;20226;-76
2023/05/09 11:10:47;;;;;;;6.97;2.80;;;16.00;99.90;;;;;;5094676;28;20201;-77
2023/05/09 11:13:23;;;;;;;7.15;2.92;;;16.00;99.90;;;;;;5096553;28;20191;-76
2023/05/09 11:16:12;;;;;;;8.00;3.42;;;16.00;99.90;;;;;;5097703;28;20206;-77
2023/05/09 11:18:56;;;;;;;6.13;2.72;;;16.00;99.90;;;;;;5098594;28;20198;-76
2023/05/09 11:21:27;;;;;;;9.98;3.67;;;15.90;99.90;;;;;;5111976;28;20290;-76
2023/05/09 11:23:59;;;;;;;8.02;3.20;;;15.90;99.90;;;;;;5097804;28;20234;-77
2023/05/09 11:26:34;;;;;;;7.70;2.78;;;15.90;99.90;;;;;;5096932;28;20765;-76
2023/05/09 11:29:10;;;;;;;6.57;2.78;;;15.80;99.90;;;;;;5088770;28;20187;-77
2023/05/09 11:32:08;;;;;;;6.72;3.03;;;15.90;99.90;;;;;;5096390;28;20236;-76
2023/05/09 11:34:39;;;;;;;5.95;2.67;;;15.90;99.90;;;;;;5085137;28;20187;-76
2023/05/09 11:37:14;;;;;;;6.60;2.67;;;15.90;99.90;;;;;;5094069;28;20202;-76
2023/05/09 11:40:03;;;;;;;6.75;2.58;;;15.90;99.90;;;;;;5094504;28;20661;-77
2023/05/09 11:42:36;;;;;;;5.72;2.33;;;15.90;99.90;;;;;;5095023;28;20217;-76
2023/05/09 11:45:08;;;;;;;7.05;2.67;;;15.90;99.90;;;;;;5093230;28;20194;-76
2023/05/09 11:47:40;;;;;;;6.28;2.30;;;15.90;99.90;;;;;;5095516;28;20206;-76
2023/05/09 11:50:13;;;;;;;7.63;2.67;;;15.90;99.90;;;;;;5093066;28;20200;-76
2023/05/09 11:52:44;;;;;;;6.78;2.88;;;15.90;99.90;;;;;;5082474;28;20203;-76
2023/05/09 11:55:17;;;;;;;5.50;2.50;;;15.90;99.90;;;;;;5094595;28;20192;-76
2023/05/09 11:57:52;;;;;;;6.05;2.42;;;15.90;99.90;;;;;;5095093;28;20200;-76
2023/05/09 12:00:24;;;;;;;7.18;2.78;;;15.90;99.90;;;;;;5087574;28;20293;-76
2023/05/09 12:02:56;;;;;;;4.65;2.42;;;15.90;99.90;;;;;;5092433;28;20187;-76
2023/05/09 12:05:27;;;;;;;5.95;2.67;;;15.90;99.90;;;;;;5096439;28;20198;-76
2023/05/09 12:08:04;;;;;;;7.75;2.53;;;15.90;99.90;;;;;;5093459;28;20206;-76
2023/05/09 12:10:38;;;;;;;7.10;2.90;;;15.90;99.90;;;;;;5094104;28;20684;-76
2023/05/09 12:13:14;;;;;;;7.68;2.90;;;15.90;99.90;;;;;;5091128;28;20202;-76
2023/05/09 12:15:45;;;;;;;8.23;2.92;;;15.90;99.90;;;;;;5093443;28;20194;-76
2023/05/09 12:18:17;;;;;;;5.75;2.78;;;15.80;99.90;;;;;;5094371;28;20191;-76
2023/05/09 12:20:49;;;;;;;9.55;2.90;;;15.90;99.90;;;;;;5093895;28;20592;-76
2023/05/09 12:23:22;;;;;;;8.30;3.30;;;15.90;99.90;;;;;;5089269;28;20725;-76
2023/05/09 12:25:56;;;;;;;8.07;2.95;;;15.90;99.90;;;;;;5107542;28;20237;-76
2023/05/09 12:28:30;;;;;;;8.85;3.42;;;15.80;99.90;;;;;;5116355;28;20194;-76
2023/05/09 12:31:01;;;;;;;10.10;3.45;;;15.80;99.90;;;;;;5096907;28;20192;-76
2023/05/09 12:33:33;;;;;;;6.20;3.50;;;15.80;99.90;;;;;;5089581;28;20192;-76
2023/05/09 12:36:09;;;;;;;8.60;3.25;;;15.70;99.90;;;;;;5092255;28;20230;-74
2023/05/09 12:38:40;;;;;;;6.30;3.17;;;15.70;99.90;;;;;;5087341;28;20198;-76
2023/05/09 12:41:12;;;;;;;6.75;2.85;;;15.60;99.90;;;;;;5091911;28;20592;-76
2023/05/09 12:43:49;;;;;;;10.20;3.75;;;15.60;99.90;;;;;;5089705;28;20248;-75
2023/05/09 12:46:22;;;;;;;8.00;3.40;;;15.60;99.90;;;;;;5088710;28;20195;-75
2023/05/09 12:48:53;;;;;;;10.27;3.55;;;15.70;99.90;;;;;;5087607;28;20195;-75
2023/05/09 12:51:24;;;;;;;8.23;3.70;;;15.60;99.90;;;;;;5091881;28;20195;-76
2023/05/09 12:53:56;;;;;;;7.00;3.83;;;15.50;99.90;;;;;;5089161;28;20581;-76
2023/05/09 12:56:27;;;;;;;8.95;4.15;;;15.60;99.90;;;;;;5091968;28;20284;-76
2023/05/09 12:59:00;;;;;;;5.90;3.53;;;15.60;99.90;;;;;;5089093;28;20198;-76
2023/05/09 13:01:31;;;;;;;7.22;3.40;;;15.50;99.90;;;;;;5090698;28;20241;-75
2023/05/09 13:04:07;;;;;;;8.55;3.50;;;15.60;99.90;;;;;;5091571;28;20195;-75
2023/05/09 13:06:49;;;;;;;6.47;3.20;;;15.60;99.90;;;;;;5092256;28;20225;-76
2023/05/09 13:09:28;;;;;;;7.10;3.10;;;15.60;99.90;;;;;;5092374;28;20423;-76
2023/05/09 13:12:19;;;;;;;6.88;3.03;;;15.60;99.90;;;;;;5096609;28;20195;-77
2023/05/09 13:14:56;;;;;;;10.52;3.60;;;15.50;99.90;;;;;;5092945;28;20195;-77